createdAt,value
2023-05-09T00:00:27.322Z,15.00
2023-05-09T00:02:55.506Z,15.10
2023-05-09T00:05:23.827Z,15.10
2023-05-09T00:07:51.956Z,15.10
2023-05-09T00:10:20.088Z,15.10
2023-05-09T00:12:49.495Z,15.10
2023-05-09T00:15:19.108Z,15.20
2023-05-09T00:17:47.338Z,15.20
2023-05-09T00:20:15.586Z,15.30
2023-05-09T00:22:43.912Z,15.20
2023-05-09T00:25:13.287Z,15.20
2023-05-09T00:27:41.502Z,15.10
2023-05-09T00:30:10.383Z,15.10
2023-05-09T00:32:41.378Z,15.10
2023-05-09T00:35:10.982Z,15.10
2023-05-09T00:37:39.161Z,15.10
2023-05-09T00:40:09.310Z,15.10
2023-05-09T00:42:37.875Z,15.10
2023-05-09T00:45:07.158Z,15.10
2023-05-09T00:47:35.719Z,15.10
2023-05-09T00:50:06.096Z,15.10
2023-05-09T00:52:34.771Z,15.10
2023-05-09T00:55:04.543Z,15.10
2023-05-09T00:57:32.602Z,15.20
2023-05-09T01:00:01.577Z,15.10
2023-05-09T01:02:29.834Z,15.10
2023-05-09T01:04:58.614Z,15.10
2023-05-09T01:07:36.045Z,15.10
2023-05-09T01:10:10.478Z,15.00
2023-05-09T01:12:48.670Z,15.00
2023-05-09T01:15:32.807Z,15.00
2023-05-09T01:18:07.519Z,14.90
2023-05-09T01:20:40.021Z,15.00
2023-05-09T01:23:44.095Z,15.00
2023-05-09T01:26:19.803Z,15.00
2023-05-09T01:29:08.002Z,15.00
2023-05-09T01:31:41.811Z,15.00
2023-05-09T01:34:12.360Z,15.00
2023-05-09T01:36:41.461Z,15.00
2023-05-09T01:39:13.658Z,15.00
2023-05-09T01:41:42.052Z,15.00
2023-05-09T01:44:12.599Z,15.00
2023-05-09T01:46:43.579Z,15.00
2023-05-09T01:49:13.137Z,15.00
2023-05-09T01:51:43.783Z,15.00
2023-05-09T01:54:13.640Z,14.90
2023-05-09T01:56:43.344Z,14.90
2023-05-09T01:59:16.133Z,14.90
2023-05-09T02:01:46.961Z,14.90
2023-05-09T02:04:16.921Z,14.90
2023-05-09T02:06:45.631Z,14.90
2023-05-09T02:09:14.343Z,14.80
2023-05-09T02:11:42.515Z,14.90
2023-05-09T02:14:10.851Z,14.80
2023-05-09T02:16:40.099Z,14.80
2023-05-09T02:19:09.650Z,14.80
2023-05-09T02:21:37.911Z,14.80
2023-05-09T02:24:06.913Z,14.70
2023-05-09T02:26:35.818Z,14.80
2023-05-09T02:29:06.681Z,14.80
2023-05-09T02:31:35.764Z,14.80
2023-05-09T02:34:05.276Z,14.70
2023-05-09T02:36:35.727Z,14.70
2023-05-09T02:39:04.195Z,14.70
2023-05-09T02:41:32.279Z,14.70
2023-05-09T02:44:00.358Z,14.70
2023-05-09T02:46:28.529Z,14.80
2023-05-09T02:48:56.799Z,14.70
2023-05-09T02:51:24.873Z,14.70
2023-05-09T02:53:54.325Z,14.70
2023-05-09T02:56:22.749Z,14.70
2023-05-09T02:58:51.694Z,14.70
2023-05-09T03:06:50.561Z,14.70
2023-05-09T03:09:20.090Z,14.70
2023-05-09T03:11:48.119Z,14.70
2023-05-09T03:14:16.198Z,14.70
2023-05-09T03:16:44.263Z,14.70
2023-05-09T03:19:12.427Z,14.70
2023-05-09T03:21:40.556Z,14.70
2023-05-09T03:24:10.061Z,14.70
2023-05-09T03:26:39.468Z,14.70
2023-05-09T03:29:07.519Z,14.60
2023-05-09T03:31:36.051Z,14.60
2023-05-09T03:34:04.223Z,14.70
2023-05-09T03:36:32.353Z,14.70
2023-05-09T03:39:00.489Z,14.60
2023-05-09T03:41:28.552Z,14.60
2023-05-09T03:43:58.019Z,14.60
2023-05-09T03:46:26.074Z,14.60
2023-05-09T03:48:54.154Z,14.60
2023-05-09T03:55:03.100Z,14.60
2023-05-09T03:57:31.137Z,14.60
2023-05-09T04:00:00.604Z,14.60
2023-05-09T04:02:28.910Z,14.60
2023-05-09T04:04:57.081Z,14.60
2023-05-09T04:07:25.184Z,14.60
2023-05-09T04:09:54.024Z,14.60
2023-05-09T04:12:22.036Z,14.60
2023-05-09T04:14:50.159Z,14.60
2023-05-09T04:17:19.612Z,14.60
2023-05-09T04:19:47.670Z,14.60
2023-05-09T04:22:15.778Z,14.60
2023-05-09T04:24:43.872Z,14.60
2023-05-09T04:27:12.072Z,14.60
2023-05-09T04:29:40.152Z,14.60
2023-05-09T04:32:08.469Z,14.60
2023-05-09T04:34:37.997Z,14.60
2023-05-09T04:37:06.082Z,14.60
2023-05-09T04:39:34.162Z,14.60
2023-05-09T04:42:02.717Z,14.60
2023-05-09T04:44:30.776Z,14.60
2023-05-09T05:02:25.194Z,14.90
2023-05-09T05:05:03.009Z,14.90
2023-05-09T05:07:38.762Z,14.90
2023-05-09T05:10:07.860Z,14.80
2023-05-09T05:12:35.950Z,14.90
2023-05-09T05:15:04.124Z,14.90
2023-05-09T05:17:33.636Z,15.00
2023-05-09T05:20:01.905Z,15.00
2023-05-09T05:22:32.596Z,15.10
2023-05-09T05:25:01.033Z,15.30
2023-05-09T05:27:29.081Z,15.40
2023-05-09T05:29:57.368Z,15.60
2023-05-09T05:32:25.639Z,15.80
2023-05-09T05:34:55.370Z,16.00
2023-05-09T05:37:23.425Z,16.10
2023-05-09T05:39:51.853Z,16.30
2023-05-09T05:42:19.938Z,16.50
2023-05-09T05:44:48.015Z,16.50
2023-05-09T05:47:16.089Z,16.50
2023-05-09T05:49:44.610Z,16.50
2023-05-09T05:52:14.278Z,16.50
2023-05-09T05:54:42.380Z,16.50
2023-05-09T05:57:10.490Z,16.50
2023-05-09T05:59:38.572Z,16.50
2023-05-09T06:02:07.075Z,16.40
2023-05-09T06:04:35.223Z,16.40
2023-05-09T06:07:03.405Z,16.40
2023-05-09T06:09:32.867Z,16.50
2023-05-09T06:12:01.173Z,16.60
2023-05-09T06:14:29.207Z,16.50
2023-05-09T06:16:57.388Z,16.60
2023-05-09T06:19:25.562Z,16.50
2023-05-09T06:21:53.704Z,16.60
2023-05-09T06:24:34.667Z,16.60
2023-05-09T06:27:05.653Z,16.90
2023-05-09T06:29:33.745Z,17.00
2023-05-09T06:32:01.866Z,17.20
2023-05-09T06:34:29.997Z,17.60
2023-05-09T06:36:58.087Z,17.80
2023-05-09T06:39:26.178Z,18.00
2023-05-09T06:41:54.232Z,18.10
2023-05-09T06:44:23.687Z,18.30
2023-05-09T06:46:52.032Z,18.60
2023-05-09T06:49:20.154Z,18.40
2023-05-09T06:51:48.199Z,18.50
2023-05-09T06:54:17.187Z,18.60
2023-05-09T06:56:45.387Z,18.70
2023-05-09T06:59:13.673Z,18.80
2023-05-09T07:01:43.343Z,19.00
2023-05-09T07:04:11.491Z,19.00
2023-05-09T07:06:39.664Z,19.00
2023-05-09T07:09:09.029Z,19.10
2023-05-09T07:11:37.439Z,19.00
2023-05-09T07:14:05.751Z,18.80
2023-05-09T07:16:35.814Z,18.70
2023-05-09T07:19:06.833Z,18.50
2023-05-09T07:21:34.914Z,18.50
2023-05-09T07:24:02.973Z,18.40
2023-05-09T07:26:31.047Z,18.40
2023-05-09T07:28:59.072Z,18.20
2023-05-09T07:31:27.379Z,18.10
2023-05-09T07:33:55.496Z,18.20
2023-05-09T07:36:24.930Z,18.00
2023-05-09T07:38:53.581Z,17.90
2023-05-09T07:41:22.462Z,17.90
2023-05-09T07:43:50.864Z,17.80
2023-05-09T07:46:19.099Z,17.90
2023-05-09T07:48:47.187Z,17.90
2023-05-09T07:51:15.261Z,18.00
2023-05-09T07:53:44.665Z,18.00
2023-05-09T07:56:13.500Z,18.30
2023-05-09T07:58:41.583Z,18.60
2023-05-09T08:01:09.713Z,18.70
2023-05-09T08:03:37.803Z,19.00
2023-05-09T08:06:05.996Z,19.10
2023-05-09T08:08:34.197Z,18.90
2023-05-09T08:11:03.839Z,19.00
2023-05-09T08:13:31.982Z,18.80
2023-05-09T08:16:00.273Z,18.80
2023-05-09T08:18:28.444Z,18.80
2023-05-09T08:20:56.494Z,18.70
2023-05-09T08:23:24.505Z,18.70
2023-05-09T08:25:54.513Z,18.70
2023-05-09T08:28:24.506Z,18.60
2023-05-09T08:30:52.640Z,18.60
2023-05-09T08:33:20.788Z,18.60
2023-05-09T08:35:52.108Z,18.50
2023-05-09T08:38:20.537Z,18.30
2023-05-09T08:40:48.773Z,18.30
2023-05-09T08:43:19.266Z,18.30
2023-05-09T08:45:52.437Z,18.40
2023-05-09T08:48:22.089Z,18.30
2023-05-09T08:50:50.988Z,18.10
2023-05-09T08:53:19.308Z,17.90
2023-05-09T08:55:47.536Z,17.80
2023-05-09T08:58:16.756Z,17.70
2023-05-09T09:00:45.297Z,17.70
2023-05-09T09:03:14.995Z,17.70
2023-05-09T09:05:44.251Z,17.60
2023-05-09T09:08:12.533Z,17.60
2023-05-09T09:10:43.216Z,17.50
2023-05-09T09:21:39.660Z,17.50
2023-05-09T09:24:09.409Z,17.50
2023-05-09T09:26:46.656Z,17.60
2023-05-09T09:29:15.443Z,17.70
2023-05-09T09:31:46.040Z,17.70
2023-05-09T09:38:07.772Z,17.80
2023-05-09T09:40:39.352Z,17.90
2023-05-09T09:43:08.153Z,18.10
2023-05-09T09:45:36.439Z,18.30
2023-05-09T09:48:08.232Z,18.50
2023-05-09T09:50:36.379Z,18.70
2023-05-09T09:53:04.617Z,18.60
2023-05-09T09:55:33.082Z,18.60
2023-05-09T09:58:02.517Z,18.70
2023-05-09T10:00:32.779Z,18.70
2023-05-09T10:03:01.491Z,18.70
2023-05-09T10:05:34.403Z,18.80
2023-05-09T10:08:04.272Z,18.80
2023-05-09T10:10:33.661Z,18.80
2023-05-09T10:13:04.864Z,18.80
2023-05-09T10:15:45.022Z,18.80
2023-05-09T10:18:25.592Z,18.70
2023-05-09T10:20:55.060Z,18.70
2023-05-09T10:23:25.217Z,18.70
2023-05-09T10:26:01.559Z,18.40
2023-05-09T10:28:33.794Z,18.40
2023-05-09T10:31:09.076Z,18.30
2023-05-09T10:33:44.616Z,18.30
2023-05-09T10:36:14.051Z,18.00
2023-05-09T10:38:42.904Z,18.00
2023-05-09T10:41:12.359Z,17.70
2023-05-09T10:43:42.819Z,17.50
2023-05-09T10:46:11.176Z,17.30
2023-05-09T10:48:40.185Z,17.10
2023-05-09T10:51:09.984Z,17.00
2023-05-09T10:53:45.836Z,17.00
2023-05-09T10:56:24.657Z,17.00
2023-05-09T10:58:54.574Z,17.00
2023-05-09T11:01:35.034Z,16.90
2023-05-09T11:04:09.865Z,16.80
2023-05-09T11:06:48.931Z,16.70
2023-05-09T11:09:39.182Z,16.80
2023-05-09T11:12:57.755Z,16.70
2023-05-09T11:15:28.337Z,16.80
2023-05-09T11:18:07.608Z,16.70
2023-05-09T11:20:36.952Z,16.60
2023-05-09T11:23:06.929Z,16.60
2023-05-09T11:25:35.075Z,16.50
2023-05-09T11:28:03.418Z,16.30
2023-05-09T11:30:41.734Z,16.20
2023-05-09T11:33:23.885Z,16.20
2023-05-09T11:36:16.548Z,16.20
2023-05-09T11:38:44.814Z,16.10
2023-05-09T11:41:13.113Z,16.20
2023-05-09T11:43:43.132Z,16.10
2023-05-09T11:46:12.794Z,16.10
2023-05-09T11:48:41.928Z,16.20
2023-05-09T11:51:18.334Z,16.30
2023-05-09T11:53:47.051Z,16.50
2023-05-09T11:56:15.846Z,16.60
2023-05-09T11:58:44.325Z,16.70
2023-05-09T12:01:13.875Z,16.60
2023-05-09T12:03:45.322Z,16.50
2023-05-09T12:06:17.901Z,16.60
2023-05-09T12:08:46.542Z,16.70
2023-05-09T12:12:09.468Z,16.70
2023-05-09T12:14:37.569Z,16.70
2023-05-09T12:17:07.372Z,16.70
2023-05-09T12:19:36.720Z,16.70
2023-05-09T12:22:06.998Z,16.80
2023-05-09T12:24:37.774Z,16.60
2023-05-09T12:27:08.018Z,16.60
2023-05-09T12:29:36.649Z,16.50
2023-05-09T12:32:06.786Z,16.50
2023-05-09T12:34:34.956Z,16.50
2023-05-09T12:37:03.939Z,16.50
2023-05-09T12:39:32.095Z,16.60
2023-05-09T12:42:02.018Z,16.70
2023-05-09T12:44:30.565Z,16.70
2023-05-09T12:47:00.295Z,16.60
2023-05-09T12:49:30.988Z,16.60
2023-05-09T12:52:02.313Z,16.50
2023-05-09T12:54:32.133Z,16.50
2023-05-09T12:57:00.492Z,16.40
2023-05-09T12:59:30.368Z,16.40
2023-05-09T13:02:00.046Z,16.30
2023-05-09T13:04:30.402Z,16.30
2023-05-09T13:07:00.143Z,16.30
2023-05-09T13:09:29.648Z,16.30
2023-05-09T13:11:57.701Z,16.30
2023-05-09T13:14:26.496Z,16.40
2023-05-09T13:16:55.382Z,16.30
2023-05-09T13:19:23.416Z,16.30
2023-05-09T13:21:53.916Z,16.30
2023-05-09T13:24:22.064Z,16.30
2023-05-09T13:26:50.496Z,16.30
2023-05-09T13:29:18.602Z,16.20
2023-05-09T13:31:46.746Z,16.10
2023-05-09T13:34:14.776Z,16.10
2023-05-09T13:36:42.864Z,16.00
2023-05-09T13:39:12.464Z,15.90
2023-05-09T13:41:40.557Z,15.80
2023-05-09T13:44:08.595Z,15.90
2023-05-09T13:46:37.220Z,15.90
2023-05-09T13:49:05.887Z,16.10
2023-05-09T13:51:34.646Z,16.10
2023-05-09T13:54:03.676Z,16.10
2023-05-09T13:56:33.117Z,16.00
2023-05-09T13:59:01.134Z,15.90
2023-05-09T14:01:29.410Z,15.80
2023-05-09T14:03:57.685Z,15.80
2023-05-09T14:06:25.795Z,15.80
2023-05-09T14:08:54.615Z,15.80
2023-05-09T14:11:22.737Z,15.70
2023-05-09T14:13:53.140Z,15.70
2023-05-09T14:16:21.564Z,15.60
2023-05-09T14:18:49.885Z,15.50
2023-05-09T14:21:17.992Z,15.50
2023-05-09T14:23:46.146Z,15.40
2023-05-09T14:26:14.246Z,15.50
2023-05-09T14:28:42.613Z,15.50
2023-05-09T14:31:12.141Z,15.60
2023-05-09T14:33:40.306Z,15.60
2023-05-09T14:36:08.974Z,15.60
2023-05-09T14:38:37.045Z,15.60
2023-05-09T14:41:06.958Z,15.50
2023-05-09T14:43:35.117Z,15.60
2023-05-09T14:46:03.404Z,15.60
2023-05-09T14:48:34.175Z,15.60
2023-05-09T14:51:02.299Z,15.60
2023-05-09T14:53:30.567Z,15.70
2023-05-09T14:55:58.686Z,15.80
2023-05-09T14:58:27.421Z,15.80
2023-05-09T15:00:55.529Z,15.80
2023-05-09T15:03:23.633Z,15.80
2023-05-09T15:05:53.211Z,15.80
2023-05-09T15:08:21.381Z,15.80
2023-05-09T15:10:50.892Z,15.70
2023-05-09T15:13:18.994Z,15.70
2023-05-09T15:15:47.763Z,15.80
2023-05-09T15:18:17.046Z,15.80
2023-05-09T15:20:45.532Z,15.80
2023-05-09T15:23:15.039Z,15.90
2023-05-09T15:25:44.538Z,15.80
2023-05-09T15:28:12.726Z,15.80
2023-05-09T15:30:41.648Z,15.80
2023-05-09T15:33:10.093Z,15.90
2023-05-09T15:35:38.757Z,15.80
2023-05-09T15:38:07.906Z,15.80
2023-05-09T15:40:37.367Z,15.70
2023-05-09T15:43:08.370Z,15.70
2023-05-09T15:45:37.884Z,15.80
2023-05-09T15:48:06.945Z,15.80
2023-05-09T15:50:35.309Z,15.80
2023-05-09T15:53:03.471Z,15.80
2023-05-09T15:55:33.076Z,15.80
2023-05-09T15:58:02.807Z,15.70
2023-05-09T16:00:31.037Z,15.70
2023-05-09T16:02:59.769Z,15.70
2023-05-09T16:05:27.971Z,15.70
2023-05-09T16:07:56.105Z,15.70
2023-05-09T16:10:24.355Z,15.70
2023-05-09T16:12:52.484Z,15.70
2023-05-09T16:15:22.028Z,15.70
2023-05-09T16:17:50.124Z,15.80
2023-05-09T16:20:18.459Z,15.80
2023-05-09T16:22:46.695Z,15.70
2023-05-09T16:25:15.047Z,15.70
2023-05-09T16:27:43.484Z,15.70
2023-05-09T16:30:12.536Z,15.70
2023-05-09T16:32:42.401Z,15.70
2023-05-09T16:35:11.099Z,15.70
2023-05-09T16:37:39.219Z,15.70
2023-05-09T16:40:08.301Z,15.70
2023-05-09T16:42:36.491Z,15.70
2023-05-09T16:45:04.990Z,15.60
2023-05-09T16:47:33.234Z,15.60
2023-05-09T16:50:02.783Z,15.60
2023-05-09T16:52:30.916Z,15.50
2023-05-09T16:54:59.482Z,15.40
2023-05-09T16:57:27.711Z,15.40
2023-05-09T16:59:55.813Z,15.30
2023-05-09T17:02:23.922Z,15.30
2023-05-09T17:04:52.166Z,15.30
2023-05-09T17:07:21.731Z,15.30
2023-05-09T17:09:49.928Z,15.30
2023-05-09T17:12:18.520Z,15.30
2023-05-09T17:14:46.901Z,15.30
2023-05-09T17:17:17.536Z,15.30
2023-05-09T17:19:45.830Z,15.20
2023-05-09T17:22:13.984Z,15.10
2023-05-09T17:24:43.478Z,15.20
2023-05-09T17:27:11.885Z,15.10
2023-05-09T17:29:40.031Z,15.20
2023-05-09T17:32:08.310Z,15.20
2023-05-09T17:34:37.936Z,15.20
2023-05-09T17:37:07.275Z,15.20
2023-05-09T17:39:35.500Z,15.20
2023-05-09T17:42:05.231Z,15.20
2023-05-09T17:44:33.326Z,15.10
2023-05-09T17:47:02.131Z,15.10
2023-05-09T17:49:30.253Z,15.10
2023-05-09T17:51:58.396Z,15.10
2023-05-09T17:54:26.634Z,15.00
2023-05-09T17:56:59.137Z,15.00
2023-05-09T17:59:28.913Z,15.00
2023-05-09T18:01:58.310Z,15.00
2023-05-09T18:04:30.291Z,14.90
2023-05-09T18:06:58.448Z,14.90
2023-05-09T18:09:26.656Z,14.90
2023-05-09T18:11:54.757Z,14.90
2023-05-09T18:14:22.843Z,14.90
2023-05-09T18:16:52.592Z,14.90
2023-05-09T18:19:20.717Z,14.80
2023-05-09T18:21:48.806Z,14.80
2023-05-09T18:24:17.187Z,14.80
2023-05-09T18:26:45.349Z,14.80
2023-05-09T18:29:13.503Z,14.80
2023-05-09T18:31:41.857Z,14.80
2023-05-09T18:34:11.613Z,14.70
2023-05-09T18:36:39.734Z,14.70
2023-05-09T18:39:08.880Z,14.70
2023-05-09T18:41:37.140Z,14.70
2023-05-09T18:44:05.342Z,14.70
2023-05-09T18:46:33.870Z,14.70
2023-05-09T18:49:03.301Z,14.60
2023-05-09T18:51:34.077Z,14.60
2023-05-09T18:54:02.239Z,14.60
2023-05-09T18:56:30.338Z,14.60
2023-05-09T18:58:58.454Z,14.60
2023-05-09T19:01:26.652Z,14.60
2023-05-09T19:03:55.294Z,14.50
2023-05-09T19:06:24.082Z,14.50
2023-05-09T19:08:54.097Z,14.50
2023-05-09T19:11:22.311Z,14.50
2023-05-09T19:13:50.635Z,14.40
2023-05-09T19:16:20.515Z,14.40
2023-05-09T19:18:48.769Z,14.30
2023-05-09T19:21:18.784Z,14.40
2023-05-09T19:23:47.839Z,14.30
2023-05-09T19:26:17.422Z,14.20
2023-05-09T19:28:46.730Z,14.20
2023-05-09T19:31:15.342Z,14.20
2023-05-09T19:33:45.533Z,14.10
2023-05-09T19:36:13.918Z,14.10
2023-05-09T19:38:42.289Z,14.10
2023-05-09T19:41:10.874Z,14.00
2023-05-09T19:43:40.331Z,14.00
2023-05-09T19:46:08.515Z,14.00
2023-05-09T19:48:36.882Z,14.00
2023-05-09T19:51:08.910Z,13.90
2023-05-09T19:53:37.023Z,13.90
2023-05-09T19:56:07.998Z,14.00
2023-05-09T19:58:36.452Z,14.00
2023-05-09T20:01:07.182Z,14.00
2023-05-09T20:03:37.110Z,14.00
2023-05-09T20:06:05.944Z,14.00
2023-05-09T20:08:34.107Z,14.00
2023-05-09T20:11:02.188Z,14.00
2023-05-09T20:13:30.306Z,14.00
2023-05-09T20:16:00.171Z,14.00
2023-05-09T20:18:33.228Z,13.90
2023-05-09T20:21:01.377Z,13.90
2023-05-09T20:38:44.627Z,13.90
2023-05-09T20:41:12.818Z,13.90
2023-05-09T20:43:40.909Z,13.90
2023-05-09T20:46:09.094Z,13.90
2023-05-09T20:48:37.424Z,13.90
2023-05-09T20:51:05.589Z,13.90
2023-05-09T20:53:35.032Z,13.90
2023-05-09T20:56:04.912Z,13.90
2023-05-09T20:58:34.243Z,14.00
2023-05-09T21:01:02.608Z,14.00
2023-05-09T21:03:30.797Z,14.00
2023-05-09T21:05:59.921Z,14.00
2023-05-09T21:08:33.925Z,14.00
2023-05-09T21:11:02.030Z,14.00
2023-05-09T21:13:31.681Z,14.00
2023-05-09T21:15:59.777Z,14.00
2023-05-09T21:18:27.998Z,13.90
2023-05-09T21:20:56.052Z,13.80
2023-05-09T21:23:24.129Z,13.80
2023-05-09T21:25:52.198Z,13.80
2023-05-09T21:28:20.777Z,13.70
2023-05-09T21:30:53.883Z,13.70
2023-05-09T21:33:22.555Z,13.60
2023-05-09T21:35:50.674Z,13.60
2023-05-09T21:38:18.715Z,13.60
2023-05-09T21:40:46.796Z,13.50
2023-05-09T21:43:18.064Z,13.50
2023-05-09T21:45:46.328Z,13.40
2023-05-09T21:48:15.883Z,13.40
2023-05-09T21:50:46.010Z,13.40
2023-05-09T21:53:14.283Z,13.30
2023-05-09T21:55:42.595Z,13.30
2023-05-09T21:58:10.625Z,13.30
2023-05-09T22:00:38.684Z,13.20
2023-05-09T22:03:06.861Z,13.20
2023-05-09T22:05:36.413Z,13.20
2023-05-09T22:08:04.595Z,13.20
2023-05-09T22:10:32.707Z,13.20
2023-05-09T22:13:00.824Z,13.20
2023-05-09T22:15:28.918Z,13.20
2023-05-09T22:17:57.033Z,13.20
2023-05-09T22:20:25.562Z,13.20
2023-05-09T22:22:55.034Z,13.20
2023-05-09T22:25:23.397Z,13.20
2023-05-09T22:27:51.486Z,13.20
2023-05-09T22:30:19.560Z,13.20
2023-05-09T22:32:47.636Z,13.20
2023-05-09T22:35:15.763Z,13.20
2023-05-09T22:37:43.853Z,13.20
2023-05-09T22:40:14.103Z,13.10
2023-05-09T22:42:42.328Z,13.20
2023-05-09T22:45:11.131Z,13.10
2023-05-09T22:47:39.279Z,13.10
2023-05-09T22:50:08.799Z,13.10
2023-05-09T22:52:36.853Z,13.10
2023-05-09T22:55:05.343Z,13.10
2023-05-09T22:57:34.774Z,13.10
2023-05-09T23:00:03.253Z,13.00
2023-05-09T23:02:31.485Z,13.00
2023-05-09T23:04:59.967Z,13.10
2023-05-09T23:07:28.122Z,13.10
2023-05-09T23:09:56.247Z,13.10
2023-05-09T23:12:24.289Z,13.10
2023-05-09T23:14:53.836Z,13.10
2023-05-09T23:17:22.249Z,13.10
2023-05-09T23:19:50.426Z,13.10
2023-05-09T23:25:59.420Z,13.10
2023-05-09T23:28:27.576Z,13.10
2023-05-09T23:30:57.074Z,13.10
2023-05-09T23:33:25.215Z,13.10
2023-05-09T23:35:53.295Z,13.10
2023-05-09T23:38:21.396Z,13.10
2023-05-09T23:40:49.627Z,13.10
2023-05-09T23:43:18.126Z,13.10
2023-05-09T23:45:46.332Z,13.10
2023-05-09T23:48:15.844Z,13.10
2023-05-09T23:50:43.903Z,13.10
2023-05-09T23:53:12.054Z,13.20
2023-05-09T23:55:40.066Z,13.20
2023-05-09T23:58:08.139Z,13.20
